»·PEaware :: WAT380 KLAX-KOAK

WAT380 :: KLAX-KOAK

FLIGHT INFORMATION

Flight Status: Arrived
Operator:
Walker Air Transport
More flights by this operator :: More flights under this callsign
Pilot: Spencer M. (27733)
Aircraft: AIRBUS A319
(A319)
More flights by this aircraft type
Origin: KLAX Los Angeles Intl
United States
Destination: KOAK Metro Oakland Intl
United States
More flights between these airports :: More routes between these airports
Route: LADYJ4 COREZ RGOOD SKIZM2
File this flight plan on PilotEdge
Remarks:
Altitude:
(Current/Filed)
32,000ft
Speed:
(Current/Filed)
450kts
Departed: 26-Dec-21 12:37 PM
Arrived: 26-Dec-21 01:43 PM
Distance/Time
Traveled:
292nm/1:06
Distance/Time
To Go:
Arrived

Flight Plot

Page will automatically refresh every two minutes.

Flight plan parsing failed; only flown route is shown


Map Options




Map Legend


Flown Route
Filed Route
Departure Airport
Arrival Airport
Navaid (VOR, NDB)
Fix

Horizontal Profiles

Position Reports

Time Latitude Longitude Heading Altitude Ground
Speed
26-Dec-21 11:59 33.940697 -118.400094 80 124ft 0kts
26-Dec-21 12:00 33.940697 -118.400094 80 124ft 0kts
26-Dec-21 12:01 33.940697 -118.400094 80 124ft 0kts
26-Dec-21 12:02 33.940697 -118.400094 80 124ft 0kts
26-Dec-21 12:03 33.940697 -118.400094 80 124ft 0kts
26-Dec-21 12:04 33.940697 -118.400094 80 124ft 0kts
26-Dec-21 12:05 33.940697 -118.400094 80 124ft 0kts
26-Dec-21 12:06 33.940697 -118.400094 80 124ft 0kts
26-Dec-21 12:07 33.940697 -118.400094 80 124ft 0kts
26-Dec-21 12:08 33.940697 -118.400094 80 124ft 0kts
26-Dec-21 12:09 33.940697 -118.400094 80 124ft 0kts
26-Dec-21 12:10 33.940697 -118.400094 80 124ft 0kts
26-Dec-21 12:11 33.940697 -118.400094 80 124ft 0kts
26-Dec-21 12:12 33.940697 -118.400094 80 124ft 0kts
26-Dec-21 12:13 33.940697 -118.400094 80 124ft 0kts
26-Dec-21 12:14 33.940697 -118.400094 80 124ft 0kts
26-Dec-21 12:15 33.940697 -118.400094 80 124ft 0kts
26-Dec-21 12:16 33.940697 -118.400095 80 124ft 0kts
26-Dec-21 12:17 33.940715 -118.400548 118 125ft 2kts
26-Dec-21 12:18 33.941098 -118.400838 174 126ft 0kts
26-Dec-21 12:19 33.941098 -118.400838 174 126ft 0kts
26-Dec-21 12:20 33.941044 -118.400831 174 126ft 3kts
26-Dec-21 12:21 33.938879 -118.399479 84 119ft 12kts
26-Dec-21 12:22 33.939493 -118.392954 83 111ft 25kts
26-Dec-21 12:23 33.940474 -118.383538 82 104ft 28kts
26-Dec-21 12:24 33.940730 -118.380212 121 102ft 0kts
26-Dec-21 12:25 33.940730 -118.380212 121 102ft 0kts
26-Dec-21 12:26 33.940730 -118.380212 121 102ft 0kts
26-Dec-21 12:27 33.940730 -118.380212 121 102ft 0kts
26-Dec-21 12:28 33.940730 -118.380212 121 102ft 0kts
26-Dec-21 12:29 33.940730 -118.380212 121 102ft 0kts
26-Dec-21 12:30 33.940730 -118.380212 121 102ft 0kts
26-Dec-21 12:31 33.940730 -118.380212 121 102ft 0kts
26-Dec-21 12:32 33.940730 -118.380212 121 102ft 0kts
26-Dec-21 12:33 33.940730 -118.380212 121 102ft 0kts
26-Dec-21 12:34 33.940730 -118.380212 121 102ft 0kts
26-Dec-21 12:35 33.939713 -118.381404 262 102ft 37kts
26-Dec-21 12:36 33.934373 -118.427585 264 1363ft 176kts
26-Dec-21 12:37 33.928828 -118.492394 265 3634ft 230kts
26-Dec-21 12:38 33.921853 -118.577803 265 6459ft 268kts
26-Dec-21 12:39 33.951822 -118.651780 331 7987ft 273kts
26-Dec-21 12:40 34.023635 -118.676264 1 8005ft 277kts
26-Dec-21 12:41 34.101806 -118.666268 5 10644ft 293kts
26-Dec-21 12:42 34.190043 -118.645368 3 12903ft 339kts
26-Dec-21 12:43 34.284183 -118.641356 341 15584ft 341kts
26-Dec-21 12:44 34.378433 -118.663252 340 18168ft 353kts
26-Dec-21 12:45 34.468941 -118.703795 321 20490ft 347kts
26-Dec-21 12:46 34.553316 -118.763627 320 22610ft 356kts
26-Dec-21 12:47 34.639703 -118.824844 320 24487ft 365kts
26-Dec-21 12:48 34.728441 -118.887785 319 26162ft 373kts
26-Dec-21 12:49 34.818518 -118.951932 318 27666ft 380kts
26-Dec-21 12:50 34.909573 -119.017007 317 29349ft 377kts
26-Dec-21 12:51 34.999378 -119.081400 317 30927ft 372kts
26-Dec-21 12:52 35.087904 -119.145016 316 32152ft 369kts
26-Dec-21 12:53 35.178743 -119.210230 317 32168ft 387kts
26-Dec-21 12:54 35.274327 -119.279210 318 32168ft 412kts
26-Dec-21 12:55 35.374566 -119.351610 318 32167ft 421kts
26-Dec-21 12:56 35.475176 -119.424594 318 32176ft 420kts
26-Dec-21 12:58 35.572530 -119.501182 313 32191ft 410kts
26-Dec-21 12:59 35.659851 -119.589075 311 32194ft 406kts
26-Dec-21 13:00 35.746308 -119.677672 310 32196ft 405kts
26-Dec-21 13:01 35.832265 -119.766106 311 32195ft 404kts
26-Dec-21 13:02 35.917597 -119.855593 308 32198ft 399kts
26-Dec-21 13:03 35.997706 -119.950222 308 32207ft 399kts
26-Dec-21 13:04 36.077439 -120.044900 308 32212ft 399kts
26-Dec-21 13:05 36.157475 -120.139760 308 32207ft 399kts
26-Dec-21 13:06 36.236949 -120.234449 308 32201ft 398kts
26-Dec-21 13:07 36.316827 -120.330093 308 32197ft 398kts
26-Dec-21 13:08 36.396280 -120.425561 308 32197ft 398kts
26-Dec-21 13:09 36.475212 -120.520638 307 32193ft 379kts
26-Dec-21 13:10 36.549248 -120.608710 309 32198ft 370kts
26-Dec-21 13:11 36.626734 -120.694757 309 30261ft 371kts
26-Dec-21 13:12 36.703159 -120.779662 309 27752ft 360kts
26-Dec-21 13:13 36.775970 -120.860666 309 25861ft 340kts
26-Dec-21 13:14 36.844811 -120.936988 310 24116ft 326kts
26-Dec-21 13:15 36.912002 -121.011671 310 22299ft 318kts
26-Dec-21 13:16 36.977165 -121.084245 310 20573ft 310kts
26-Dec-21 13:17 37.040744 -121.155175 311 18910ft 303kts
26-Dec-21 13:18 37.102883 -121.224667 312 17296ft 297kts
26-Dec-21 13:19 37.173311 -121.279992 328 15716ft 303kts
26-Dec-21 13:20 37.249296 -121.322380 329 14178ft 297kts
26-Dec-21 13:20 37.311896 -121.357409 330 12916ft 293kts
26-Dec-21 13:22 37.397691 -121.405436 331 11163ft 288kts
26-Dec-21 13:23 37.469623 -121.445822 332 10102ft 266kts
26-Dec-21 13:24 37.535029 -121.482674 332 9985ft 264kts
26-Dec-21 13:24 37.590700 -121.513997 332 9822ft 266kts
26-Dec-21 13:25 37.657481 -121.551718 332 8562ft 260kts
26-Dec-21 13:26 37.716932 -121.599785 314 7927ft 259kts
26-Dec-21 13:28 37.777596 -121.671181 313 7988ft 258kts
26-Dec-21 13:29 37.830459 -121.732996 313 7306ft 257kts
26-Dec-21 13:29 37.860631 -121.794337 289 6933ft 249kts
26-Dec-21 13:30 37.887119 -121.875059 289 6977ft 249kts
26-Dec-21 13:31 37.912943 -121.954905 283 5999ft 236kts
26-Dec-21 13:32 37.920222 -122.035889 272 5448ft 233kts
26-Dec-21 13:33 37.925480 -122.117092 272 4377ft 227kts
26-Dec-21 13:34 37.926286 -122.194206 261 3991ft 207kts
26-Dec-21 13:35 37.921975 -122.266964 265 3992ft 206kts
26-Dec-21 13:36 37.904437 -122.332193 215 3857ft 207kts
26-Dec-21 13:37 37.850037 -122.347255 191 2888ft 183kts
26-Dec-21 13:38 37.806454 -122.353619 176 2276ft 141kts
26-Dec-21 13:39 37.775943 -122.326545 132 1554ft 136kts
26-Dec-21 13:40 37.751634 -122.289800 130 886ft 135kts
26-Dec-21 13:41 37.727950 -122.253991 130 291ft 122kts
26-Dec-21 13:42 37.713270 -122.231914 120 15ft 29kts
26-Dec-21 13:43 37.714689 -122.230297 128 14ft 14kts
26-Dec-21 13:44 37.711722 -122.225882 130 16ft 17kts
26-Dec-21 13:45 37.712176 -122.220871 131 16ft 19kts
26-Dec-21 13:46 37.710671 -122.217299 100 16ft 1kts
26-Dec-21 13:47 37.710636 -122.217041 100 16ft 0kts
26-Dec-21 13:48 37.710636 -122.217041 100 16ft 0kts

Navigation Log

Ident Type
Flight plan parsing failed, navigation log unavailable